sensor_id;sensor_type;location;lat;lon;timestamp;temperature;humidity
65374;SHT31;52070;53.760;9.678;2022-10-31T00:01:50;10.20;92.55
65374;SHT31;52070;53.760;9.678;2022-10-31T00:04:17;10.27;93.00
65374;SHT31;52070;53.760;9.678;2022-10-31T00:06:44;10.58;93.54
65374;SHT31;52070;53.760;9.678;2022-10-31T00:09:11;10.72;94.57
65374;SHT31;52070;53.760;9.678;2022-10-31T00:11:38;10.89;94.86
65374;SHT31;52070;53.760;9.678;2022-10-31T00:14:05;11.28;95.25
65374;SHT31;52070;53.760;9.678;2022-10-31T00:16:34;11.62;95.70
65374;SHT31;52070;53.760;9.678;2022-10-31T00:19:03;11.80;95.99
65374;SHT31;52070;53.760;9.678;2022-10-31T00:21:30;11.93;96.20
65374;SHT31;52070;53.760;9.678;2022-10-31T00:23:57;12.00;96.29
65374;SHT31;52070;53.760;9.678;2022-10-31T00:26:26;12.08;96.36
65374;SHT31;52070;53.760;9.678;2022-10-31T00:28:53;12.13;96.48
65374;SHT31;52070;53.760;9.678;2022-10-31T00:31:20;12.03;96.46
65374;SHT31;52070;53.760;9.678;2022-10-31T00:33:48;11.96;96.35
65374;SHT31;52070;53.760;9.678;2022-10-31T00:36:17;11.93;96.28
65374;SHT31;52070;53.760;9.678;2022-10-31T00:38:45;11.89;96.21
65374;SHT31;52070;53.760;9.678;2022-10-31T00:41:15;11.77;96.14
65374;SHT31;52070;53.760;9.678;2022-10-31T00:43:42;11.73;96.07
65374;SHT31;52070;53.760;9.678;2022-10-31T00:46:10;11.86;96.00
65374;SHT31;52070;53.760;9.678;2022-10-31T00:48:37;11.87;96.08
65374;SHT31;52070;53.760;9.678;2022-10-31T00:51:06;11.93;96.08
65374;SHT31;52070;53.760;9.678;2022-10-31T00:53:33;11.96;96.13
65374;SHT31;52070;53.760;9.678;2022-10-31T00:56:00;12.03;96.17
65374;SHT31;52070;53.760;9.678;2022-10-31T00:58:27;12.08;96.18
65374;SHT31;52070;53.760;9.678;2022-10-31T01:00:54;12.18;96.28
65374;SHT31;52070;53.760;9.678;2022-10-31T01:03:22;12.27;96.29
65374;SHT31;52070;53.760;9.678;2022-10-31T01:06:00;12.25;96.34
65374;SHT31;52070;53.760;9.678;2022-10-31T01:08:29;12.24;96.36
65374;SHT31;52070;53.760;9.678;2022-10-31T01:11:05;12.27;96.30
65374;SHT31;52070;53.760;9.678;2022-10-31T01:13:33;12.34;96.28
65374;SHT31;52070;53.760;9.678;2022-10-31T01:16:01;12.33;96.27
65374;SHT31;52070;53.760;9.678;2022-10-31T01:18:28;12.33;96.26
65374;SHT31;52070;53.760;9.678;2022-10-31T01:20:59;12.35;96.23
65374;SHT31;52070;53.760;9.678;2022-10-31T01:23:28;12.33;96.23
65374;SHT31;52070;53.760;9.678;2022-10-31T01:26:00;12.40;96.22
65374;SHT31;52070;53.760;9.678;2022-10-31T01:28:27;12.38;96.26
65374;SHT31;52070;53.760;9.678;2022-10-31T01:30:54;12.45;96.25
65374;SHT31;52070;53.760;9.678;2022-10-31T01:33:21;12.48;96.32
65374;SHT31;52070;53.760;9.678;2022-10-31T01:35:48;12.48;96.35
65374;SHT31;52070;53.760;9.678;2022-10-31T01:38:15;12.49;96.33
65374;SHT31;52070;53.760;9.678;2022-10-31T01:40:43;12.54;96.30
65374;SHT31;52070;53.760;9.678;2022-10-31T01:43:12;12.59;96.38
65374;SHT31;52070;53.760;9.678;2022-10-31T01:45:40;12.67;96.45
65374;SHT31;52070;53.760;9.678;2022-10-31T01:48:11;12.72;96.45
65374;SHT31;52070;53.760;9.678;2022-10-31T01:50:40;12.82;96.55
65374;SHT31;52070;53.760;9.678;2022-10-31T01:53:10;12.89;96.62
65374;SHT31;52070;53.760;9.678;2022-10-31T01:55:39;12.92;96.72
65374;SHT31;52070;53.760;9.678;2022-10-31T01:58:10;12.89;96.69
65374;SHT31;52070;53.760;9.678;2022-10-31T02:00:38;12.95;96.67
65374;SHT31;52070;53.760;9.678;2022-10-31T02:03:06;12.96;96.72
65374;SHT31;52070;53.760;9.678;2022-10-31T02:05:33;12.98;96.70
65374;SHT31;52070;53.760;9.678;2022-10-31T02:08:03;12.98;96.69
65374;SHT31;52070;53.760;9.678;2022-10-31T02:10:33;13.00;96.66
65374;SHT31;52070;53.760;9.678;2022-10-31T02:13:03;13.00;96.62
65374;SHT31;52070;53.760;9.678;2022-10-31T02:15:32;12.99;96.62
65374;SHT31;52070;53.760;9.678;2022-10-31T02:17:59;12.95;96.59
65374;SHT31;52070;53.760;9.678;2022-10-31T02:20:30;12.96;96.55
65374;SHT31;52070;53.760;9.678;2022-10-31T02:23:20;12.95;96.58
65374;SHT31;52070;53.760;9.678;2022-10-31T02:26:09;12.95;96.57
65374;SHT31;52070;53.760;9.678;2022-10-31T02:31:32;12.96;96.56
65374;SHT31;52070;53.760;9.678;2022-10-31T02:34:08;12.93;96.57
65374;SHT31;52070;53.760;9.678;2022-10-31T02:36:42;12.92;96.54
65374;SHT31;52070;53.760;9.678;2022-10-31T02:39:12;12.93;96.51
65374;SHT31;52070;53.760;9.678;2022-10-31T02:41:47;12.92;96.54
65374;SHT31;52070;53.760;9.678;2022-10-31T02:44:21;12.92;96.48
65374;SHT31;52070;53.760;9.678;2022-10-31T02:46:53;12.95;96.52
65374;SHT31;52070;53.760;9.678;2022-10-31T02:49:24;12.91;96.46
65374;SHT31;52070;53.760;9.678;2022-10-31T02:51:53;12.91;96.43
65374;SHT31;52070;53.760;9.678;2022-10-31T02:54:24;12.87;96.46
65374;SHT31;52070;53.760;9.678;2022-10-31T02:56:54;12.88;96.42
65374;SHT31;52070;53.760;9.678;2022-10-31T02:59:24;12.85;96.41
65374;SHT31;52070;53.760;9.678;2022-10-31T03:02:07;12.79;96.31
65374;SHT31;52070;53.760;9.678;2022-10-31T03:04:49;12.79;96.30
65374;SHT31;52070;53.760;9.678;2022-10-31T03:07:25;12.79;96.29
65374;SHT31;52070;53.760;9.678;2022-10-31T03:10:03;12.79;96.33
65374;SHT31;52070;53.760;9.678;2022-10-31T03:12:38;12.85;96.34
65374;SHT31;52070;53.760;9.678;2022-10-31T03:15:12;12.82;96.40
65374;SHT31;52070;53.760;9.678;2022-10-31T03:17:50;12.81;96.42
65374;SHT31;52070;53.760;9.678;2022-10-31T03:20:21;12.78;96.42
65374;SHT31;52070;53.760;9.678;2022-10-31T03:22:49;12.79;96.43
65374;SHT31;52070;53.760;9.678;2022-10-31T03:25:16;12.77;96.47
65374;SHT31;52070;53.760;9.678;2022-10-31T03:27:44;12.77;96.42
65374;SHT31;52070;53.760;9.678;2022-10-31T03:30:12;12.74;96.42
65374;SHT31;52070;53.760;9.678;2022-10-31T03:32:44;12.69;96.40
65374;SHT31;52070;53.760;9.678;2022-10-31T03:35:15;12.69;96.39
65374;SHT31;52070;53.760;9.678;2022-10-31T03:37:45;12.69;96.42
65374;SHT31;52070;53.760;9.678;2022-10-31T03:40:14;12.71;96.42
65374;SHT31;52070;53.760;9.678;2022-10-31T03:42:46;12.67;96.40
65374;SHT31;52070;53.760;9.678;2022-10-31T03:45:17;12.69;96.45
65374;SHT31;52070;53.760;9.678;2022-10-31T03:47:49;12.71;96.46
65374;SHT31;52070;53.760;9.678;2022-10-31T03:50:16;12.69;96.45
65374;SHT31;52070;53.760;9.678;2022-10-31T03:52:47;12.68;96.41
65374;SHT31;52070;53.760;9.678;2022-10-31T03:55:18;12.72;96.47
65374;SHT31;52070;53.760;9.678;2022-10-31T03:57:51;12.74;96.53
65374;SHT31;52070;53.760;9.678;2022-10-31T04:00:19;12.77;96.57
65374;SHT31;52070;53.760;9.678;2022-10-31T04:02:53;12.75;96.59
65374;SHT31;52070;53.760;9.678;2022-10-31T04:05:21;12.75;96.67
65374;SHT31;52070;53.760;9.678;2022-10-31T04:07:51;12.77;96.69
65374;SHT31;52070;53.760;9.678;2022-10-31T04:10:21;12.79;96.74
65374;SHT31;52070;53.760;9.678;2022-10-31T04:12:53;12.77;96.76
65374;SHT31;52070;53.760;9.678;2022-10-31T04:15:22;12.77;96.77
65374;SHT31;52070;53.760;9.678;2022-10-31T04:17:53;12.77;96.80
65374;SHT31;52070;53.760;9.678;2022-10-31T04:20:30;12.72;96.81
65374;SHT31;52070;53.760;9.678;2022-10-31T04:22:57;12.72;96.84
65374;SHT31;52070;53.760;9.678;2022-10-31T04:25:24;12.74;96.84
65374;SHT31;52070;53.760;9.678;2022-10-31T04:27:50;12.71;96.82
65374;SHT31;52070;53.760;9.678;2022-10-31T04:30:17;12.69;96.83
65374;SHT31;52070;53.760;9.678;2022-10-31T04:32:44;12.69;96.86
65374;SHT31;52070;53.760;9.678;2022-10-31T04:35:13;12.62;96.81
65374;SHT31;52070;53.760;9.678;2022-10-31T04:37:40;12.61;96.83
65374;SHT31;52070;53.760;9.678;2022-10-31T04:40:08;12.58;96.81
65374;SHT31;52070;53.760;9.678;2022-10-31T04:42:35;12.52;96.78
65374;SHT31;52070;53.760;9.678;2022-10-31T04:45:02;12.42;96.78
65374;SHT31;52070;53.760;9.678;2022-10-31T04:47:31;12.41;96.76
65374;SHT31;52070;53.760;9.678;2022-10-31T04:49:59;12.35;96.78
65374;SHT31;52070;53.760;9.678;2022-10-31T04:52:27;12.34;96.83
65374;SHT31;52070;53.760;9.678;2022-10-31T04:54:54;12.31;96.87
65374;SHT31;52070;53.760;9.678;2022-10-31T04:57:21;12.34;96.92
65374;SHT31;52070;53.760;9.678;2022-10-31T04:59:48;12.30;96.94
65374;SHT31;52070;53.760;9.678;2022-10-31T05:02:15;12.31;97.00
65374;SHT31;52070;53.760;9.678;2022-10-31T05:04:42;12.33;97.08
65374;SHT31;52070;53.760;9.678;2022-10-31T05:07:09;12.34;97.10
65374;SHT31;52070;53.760;9.678;2022-10-31T05:09:37;12.33;97.13
65374;SHT31;52070;53.760;9.678;2022-10-31T05:12:04;12.37;97.24
65374;SHT31;52070;53.760;9.678;2022-10-31T05:14:31;12.40;97.23
65374;SHT31;52070;53.760;9.678;2022-10-31T05:16:58;12.41;97.33
65374;SHT31;52070;53.760;9.678;2022-10-31T05:19:25;12.44;97.34
65374;SHT31;52070;53.760;9.678;2022-10-31T05:21:52;12.44;97.38
65374;SHT31;52070;53.760;9.678;2022-10-31T05:24:19;12.44;97.39
65374;SHT31;52070;53.760;9.678;2022-10-31T05:26:49;12.42;97.39
65374;SHT31;52070;53.760;9.678;2022-10-31T05:29:16;12.44;97.40
65374;SHT31;52070;53.760;9.678;2022-10-31T05:31:43;12.41;97.45
65374;SHT31;52070;53.760;9.678;2022-10-31T05:34:10;12.45;97.44
65374;SHT31;52070;53.760;9.678;2022-10-31T05:36:37;12.47;97.47
65374;SHT31;52070;53.760;9.678;2022-10-31T05:39:04;12.48;97.49
65374;SHT31;52070;53.760;9.678;2022-10-31T05:41:31;12.48;97.49
65374;SHT31;52070;53.760;9.678;2022-10-31T05:43:59;12.45;97.51
65374;SHT31;52070;53.760;9.678;2022-10-31T05:46:26;12.48;97.51
65374;SHT31;52070;53.760;9.678;2022-10-31T05:48:53;12.51;97.52
65374;SHT31;52070;53.760;9.678;2022-10-31T05:51:20;12.48;97.57
65374;SHT31;52070;53.760;9.678;2022-10-31T05:53:47;12.47;97.55
65374;SHT31;52070;53.760;9.678;2022-10-31T05:56:14;12.49;97.59
65374;SHT31;52070;53.760;9.678;2022-10-31T05:58:41;12.44;97.56
65374;SHT31;52070;53.760;9.678;2022-10-31T06:01:09;12.47;97.63
65374;SHT31;52070;53.760;9.678;2022-10-31T06:03:36;12.47;97.64
65374;SHT31;52070;53.760;9.678;2022-10-31T06:06:03;12.45;97.65
65374;SHT31;52070;53.760;9.678;2022-10-31T06:08:30;12.45;97.65
65374;SHT31;52070;53.760;9.678;2022-10-31T06:10:57;12.48;97.65
65374;SHT31;52070;53.760;9.678;2022-10-31T06:13:24;12.47;97.65
65374;SHT31;52070;53.760;9.678;2022-10-31T06:15:51;12.49;97.69
65374;SHT31;52070;53.760;9.678;2022-10-31T06:18:19;12.51;97.73
65374;SHT31;52070;53.760;9.678;2022-10-31T06:20:46;12.54;97.67
65374;SHT31;52070;53.760;9.678;2022-10-31T06:23:13;12.55;97.68
65374;SHT31;52070;53.760;9.678;2022-10-31T06:25:40;12.55;97.72
65374;SHT31;52070;53.760;9.678;2022-10-31T06:28:07;12.52;97.68
65374;SHT31;52070;53.760;9.678;2022-10-31T06:30:34;12.52;97.67
65374;SHT31;52070;53.760;9.678;2022-10-31T06:33:02;12.51;97.68
65374;SHT31;52070;53.760;9.678;2022-10-31T06:35:31;12.49;97.74
65374;SHT31;52070;53.760;9.678;2022-10-31T06:37:59;12.48;97.68
65374;SHT31;52070;53.760;9.678;2022-10-31T06:40:26;12.42;97.70
65374;SHT31;52070;53.760;9.678;2022-10-31T06:42:57;12.38;97.69
65374;SHT31;52070;53.760;9.678;2022-10-31T06:45:24;12.35;97.69
65374;SHT31;52070;53.760;9.678;2022-10-31T06:47:51;12.28;97.65
65374;SHT31;52070;53.760;9.678;2022-10-31T06:50:19;12.31;97.71
65374;SHT31;52070;53.760;9.678;2022-10-31T06:52:51;12.24;97.67
65374;SHT31;52070;53.760;9.678;2022-10-31T06:55:18;12.21;97.71
65374;SHT31;52070;53.760;9.678;2022-10-31T06:57:51;12.20;97.69
65374;SHT31;52070;53.760;9.678;2022-10-31T07:00:18;12.21;97.67
65374;SHT31;52070;53.760;9.678;2022-10-31T07:02:53;12.27;97.70
65374;SHT31;52070;53.760;9.678;2022-10-31T07:05:20;12.24;97.67
65374;SHT31;52070;53.760;9.678;2022-10-31T07:07:47;12.25;97.67
65374;SHT31;52070;53.760;9.678;2022-10-31T07:10:15;12.23;97.68
65374;SHT31;52070;53.760;9.678;2022-10-31T07:12:42;12.23;97.63
65374;SHT31;52070;53.760;9.678;2022-10-31T07:15:09;12.17;97.67
65374;SHT31;52070;53.760;9.678;2022-10-31T07:17:36;12.16;97.66
65374;SHT31;52070;53.760;9.678;2022-10-31T07:20:05;12.18;97.70
65374;SHT31;52070;53.760;9.678;2022-10-31T07:22:33;12.21;97.67
65374;SHT31;52070;53.760;9.678;2022-10-31T07:25:00;12.21;97.64
65374;SHT31;52070;53.760;9.678;2022-10-31T07:27:28;12.16;97.65
65374;SHT31;52070;53.760;9.678;2022-10-31T07:29:55;12.14;97.64
65374;SHT31;52070;53.760;9.678;2022-10-31T07:32:22;12.17;97.58
65374;SHT31;52070;53.760;9.678;2022-10-31T07:34:49;12.14;97.63
65374;SHT31;52070;53.760;9.678;2022-10-31T07:37:16;12.17;97.63
65374;SHT31;52070;53.760;9.678;2022-10-31T07:39:43;12.21;97.62
65374;SHT31;52070;53.760;9.678;2022-10-31T07:42:10;12.21;97.63
65374;SHT31;52070;53.760;9.678;2022-10-31T07:44:38;12.27;97.63
65374;SHT31;52070;53.760;9.678;2022-10-31T07:47:05;12.30;97.60
65374;SHT31;52070;53.760;9.678;2022-10-31T07:49:32;12.30;97.58
65374;SHT31;52070;53.760;9.678;2022-10-31T07:51:59;12.25;97.55
65374;SHT31;52070;53.760;9.678;2022-10-31T07:54:26;12.27;97.55
65374;SHT31;52070;53.760;9.678;2022-10-31T07:56:53;12.24;97.52
65374;SHT31;52070;53.760;9.678;2022-10-31T07:59:20;12.18;97.48
65374;SHT31;52070;53.760;9.678;2022-10-31T08:01:48;12.17;97.40
65374;SHT31;52070;53.760;9.678;2022-10-31T08:04:15;12.17;97.38
65374;SHT31;52070;53.760;9.678;2022-10-31T08:06:42;12.12;97.33
65374;SHT31;52070;53.760;9.678;2022-10-31T08:09:09;12.12;97.27
65374;SHT31;52070;53.760;9.678;2022-10-31T08:11:36;12.13;97.20
65374;SHT31;52070;53.760;9.678;2022-10-31T08:14:03;12.14;97.17
65374;SHT31;52070;53.760;9.678;2022-10-31T08:16:30;12.18;97.13
65374;SHT31;52070;53.760;9.678;2022-10-31T08:18:58;12.21;97.12
65374;SHT31;52070;53.760;9.678;2022-10-31T08:21:25;12.28;97.12
65374;SHT31;52070;53.760;9.678;2022-10-31T08:23:52;12.31;97.10
65374;SHT31;52070;53.760;9.678;2022-10-31T08:26:19;12.30;97.11
65374;SHT31;52070;53.760;9.678;2022-10-31T08:28:46;12.31;97.11
65374;SHT31;52070;53.760;9.678;2022-10-31T08:31:15;12.30;97.10
65374;SHT31;52070;53.760;9.678;2022-10-31T08:33:42;12.33;97.07
65374;SHT31;52070;53.760;9.678;2022-10-31T08:36:10;12.33;97.02
65374;SHT31;52070;53.760;9.678;2022-10-31T08:38:37;12.38;97.01
65374;SHT31;52070;53.760;9.678;2022-10-31T08:41:05;12.47;97.00
65374;SHT31;52070;53.760;9.678;2022-10-31T08:43:31;12.42;97.01
65374;SHT31;52070;53.760;9.678;2022-10-31T08:45:58;12.48;96.96
65374;SHT31;52070;53.760;9.678;2022-10-31T08:48:25;12.54;96.94
65374;SHT31;52070;53.760;9.678;2022-10-31T08:50:56;12.58;96.91
65374;SHT31;52070;53.760;9.678;2022-10-31T08:53:27;12.57;96.92
65374;SHT31;52070;53.760;9.678;2022-10-31T08:55:55;12.59;96.90
65374;SHT31;52070;53.760;9.678;2022-10-31T08:58:23;12.68;96.86
65374;SHT31;52070;53.760;9.678;2022-10-31T09:00:52;12.68;96.89
65374;SHT31;52070;53.760;9.678;2022-10-31T09:03:20;12.67;96.85
65374;SHT31;52070;53.760;9.678;2022-10-31T09:05:48;12.74;96.77
65374;SHT31;52070;53.760;9.678;2022-10-31T09:08:16;12.75;96.76
65374;SHT31;52070;53.760;9.678;2022-10-31T09:10:45;12.79;96.74
65374;SHT31;52070;53.760;9.678;2022-10-31T09:13:14;12.85;96.71
65374;SHT31;52070;53.760;9.678;2022-10-31T09:15:43;12.89;96.62
65374;SHT31;52070;53.760;9.678;2022-10-31T09:18:11;12.91;96.60
65374;SHT31;52070;53.760;9.678;2022-10-31T09:20:40;12.99;96.55
65374;SHT31;52070;53.760;9.678;2022-10-31T09:23:11;13.03;96.56
65374;SHT31;52070;53.760;9.678;2022-10-31T09:25:39;13.15;96.52
65374;SHT31;52070;53.760;9.678;2022-10-31T09:28:10;13.16;96.53
65374;SHT31;52070;53.760;9.678;2022-10-31T09:30:38;13.20;96.50
65374;SHT31;52070;53.760;9.678;2022-10-31T09:33:08;13.29;96.45
65374;SHT31;52070;53.760;9.678;2022-10-31T09:35:35;13.36;96.47
65374;SHT31;52070;53.760;9.678;2022-10-31T09:38:04;13.44;96.43
65374;SHT31;52070;53.760;9.678;2022-10-31T09:40:34;13.46;96.38
65374;SHT31;52070;53.760;9.678;2022-10-31T09:43:11;13.47;96.37
65374;SHT31;52070;53.760;9.678;2022-10-31T09:45:46;13.50;96.29
65374;SHT31;52070;53.760;9.678;2022-10-31T09:48:25;13.54;96.26
65374;SHT31;52070;53.760;9.678;2022-10-31T09:50:56;13.62;96.25
65374;SHT31;52070;53.760;9.678;2022-10-31T09:53:29;13.69;96.23
65374;SHT31;52070;53.760;9.678;2022-10-31T09:55:58;13.80;96.20
65374;SHT31;52070;53.760;9.678;2022-10-31T09:58:28;13.88;96.19
65374;SHT31;52070;53.760;9.678;2022-10-31T10:00:58;13.97;96.08
65374;SHT31;52070;53.760;9.678;2022-10-31T10:03:31;14.04;96.02
65374;SHT31;52070;53.760;9.678;2022-10-31T10:06:06;14.15;95.92
65374;SHT31;52070;53.760;9.678;2022-10-31T10:08:36;14.29;95.87
65374;SHT31;52070;53.760;9.678;2022-10-31T10:11:15;14.42;95.80
65374;SHT31;52070;53.760;9.678;2022-10-31T10:13:55;14.55;95.78
65374;SHT31;52070;53.760;9.678;2022-10-31T10:16:35;14.61;95.68
65374;SHT31;52070;53.760;9.678;2022-10-31T10:19:16;14.64;95.54
65374;SHT31;52070;53.760;9.678;2022-10-31T10:21:51;14.61;95.36
65374;SHT31;52070;53.760;9.678;2022-10-31T10:24:32;14.58;94.92
65374;SHT31;52070;53.760;9.678;2022-10-31T10:27:08;14.58;94.67
65374;SHT31;52070;53.760;9.678;2022-10-31T10:29:44;14.56;94.16
65374;SHT31;52070;53.760;9.678;2022-10-31T10:32:18;14.51;93.87
65374;SHT31;52070;53.760;9.678;2022-10-31T10:34:50;14.49;93.11
65374;SHT31;52070;53.760;9.678;2022-10-31T10:37:21;14.55;93.13
65374;SHT31;52070;53.760;9.678;2022-10-31T10:39:52;14.61;93.32
65374;SHT31;52070;53.760;9.678;2022-10-31T10:42:20;14.71;93.34
65374;SHT31;52070;53.760;9.678;2022-10-31T10:45:14;14.76;93.15
65374;SHT31;52070;53.760;9.678;2022-10-31T10:48:06;14.80;92.95
65374;SHT31;52070;53.760;9.678;2022-10-31T10:50:40;14.80;92.31
65374;SHT31;52070;53.760;9.678;2022-10-31T10:53:20;14.82;92.27
65374;SHT31;52070;53.760;9.678;2022-10-31T10:56:00;14.85;91.49
65374;SHT31;52070;53.760;9.678;2022-10-31T10:58:29;14.73;88.90
65374;SHT31;52070;53.760;9.678;2022-10-31T11:00:57;14.69;89.05
65374;SHT31;52070;53.760;9.678;2022-10-31T11:03:24;14.76;89.01
65374;SHT31;52070;53.760;9.678;2022-10-31T11:05:53;14.69;88.02
65374;SHT31;52070;53.760;9.678;2022-10-31T11:08:24;14.64;87.35
65374;SHT31;52070;53.760;9.678;2022-10-31T11:10:59;14.64;88.22
65374;SHT31;52070;53.760;9.678;2022-10-31T11:13:28;14.61;86.61
65374;SHT31;52070;53.760;9.678;2022-10-31T11:16:02;14.68;87.06
65374;SHT31;52070;53.760;9.678;2022-10-31T11:18:32;14.65;87.52
65374;SHT31;52070;53.760;9.678;2022-10-31T11:21:01;14.68;88.07
65374;SHT31;52070;53.760;9.678;2022-10-31T11:23:30;14.73;88.45
65374;SHT31;52070;53.760;9.678;2022-10-31T11:25:59;14.73;87.45
65374;SHT31;52070;53.760;9.678;2022-10-31T11:28:28;14.78;86.92
65374;SHT31;52070;53.760;9.678;2022-10-31T11:30:58;14.89;86.33
65374;SHT31;52070;53.760;9.678;2022-10-31T11:33:30;15.19;86.80
65374;SHT31;52070;53.760;9.678;2022-10-31T11:35:59;15.40;85.75
65374;SHT31;52070;53.760;9.678;2022-10-31T11:38:32;15.37;84.54
65374;SHT31;52070;53.760;9.678;2022-10-31T11:41:09;15.44;85.15
65374;SHT31;52070;53.760;9.678;2022-10-31T11:43:38;15.64;85.67
65374;SHT31;52070;53.760;9.678;2022-10-31T11:46:09;15.64;85.93
65374;SHT31;52070;53.760;9.678;2022-10-31T11:48:38;15.67;86.51
65374;SHT31;52070;53.760;9.678;2022-10-31T11:51:05;15.70;86.60
65374;SHT31;52070;53.760;9.678;2022-10-31T11:53:34;15.71;86.97
65374;SHT31;52070;53.760;9.678;2022-10-31T11:56:05;15.73;86.91
65374;SHT31;52070;53.760;9.678;2022-10-31T11:58:32;15.70;86.22
65374;SHT31;52070;53.760;9.678;2022-10-31T12:00:59;15.68;85.57
65374;SHT31;52070;53.760;9.678;2022-10-31T12:03:34;15.67;86.16
65374;SHT31;52070;53.760;9.678;2022-10-31T12:06:08;15.65;86.12
65374;SHT31;52070;53.760;9.678;2022-10-31T12:08:38;15.57;85.61
65374;SHT31;52070;53.760;9.678;2022-10-31T12:11:15;15.67;85.78
65374;SHT31;52070;53.760;9.678;2022-10-31T12:13:55;15.88;85.42
65374;SHT31;52070;53.760;9.678;2022-10-31T12:16:29;16.48;84.59
65374;SHT31;52070;53.760;9.678;2022-10-31T12:19:04;16.83;80.24
65374;SHT31;52070;53.760;9.678;2022-10-31T12:21:45;16.73;79.04
65374;SHT31;52070;53.760;9.678;2022-10-31T12:24:26;16.21;79.59
65374;SHT31;52070;53.760;9.678;2022-10-31T12:27:05;15.81;80.29
65374;SHT31;52070;53.760;9.678;2022-10-31T12:29:57;15.67;81.61
65374;SHT31;52070;53.760;9.678;2022-10-31T12:32:35;15.53;82.35
65374;SHT31;52070;53.760;9.678;2022-10-31T12:35:15;15.41;83.03
65374;SHT31;52070;53.760;9.678;2022-10-31T12:37:58;15.46;84.00
65374;SHT31;52070;53.760;9.678;2022-10-31T12:40:39;15.47;83.33
65374;SHT31;52070;53.760;9.678;2022-10-31T12:43:20;15.51;83.21
65374;SHT31;52070;53.760;9.678;2022-10-31T12:45:53;15.57;83.73
65374;SHT31;52070;53.760;9.678;2022-10-31T12:48:45;15.54;82.63
65374;SHT31;52070;53.760;9.678;2022-10-31T12:51:22;15.61;83.87
65374;SHT31;52070;53.760;9.678;2022-10-31T12:54:04;15.92;84.17
65374;SHT31;52070;53.760;9.678;2022-10-31T12:56:43;16.29;83.68
65374;SHT31;52070;53.760;9.678;2022-10-31T12:59:21;16.16;81.45
65374;SHT31;52070;53.760;9.678;2022-10-31T13:01:57;16.04;81.90
65374;SHT31;52070;53.760;9.678;2022-10-31T13:04:36;15.87;81.42
65374;SHT31;52070;53.760;9.678;2022-10-31T13:07:09;15.68;82.76
65374;SHT31;52070;53.760;9.678;2022-10-31T13:09:45;15.60;83.45
65374;SHT31;52070;53.760;9.678;2022-10-31T13:12:15;15.44;82.13
65374;SHT31;52070;53.760;9.678;2022-10-31T13:14:47;15.73;83.22
65374;SHT31;52070;53.760;9.678;2022-10-31T13:17:22;15.88;82.96
65374;SHT31;52070;53.760;9.678;2022-10-31T13:19:52;16.15;80.88
65374;SHT31;52070;53.760;9.678;2022-10-31T13:22:22;16.21;80.41
65374;SHT31;52070;53.760;9.678;2022-10-31T13:24:54;16.00;79.43
65374;SHT31;52070;53.760;9.678;2022-10-31T13:27:24;15.74;80.35
65374;SHT31;52070;53.760;9.678;2022-10-31T13:29:59;15.71;81.00
65374;SHT31;52070;53.760;9.678;2022-10-31T13:32:30;15.54;80.67
65374;SHT31;52070;53.760;9.678;2022-10-31T13:35:03;15.44;82.12
65374;SHT31;52070;53.760;9.678;2022-10-31T13:37:35;15.29;82.16
65374;SHT31;52070;53.760;9.678;2022-10-31T13:40:14;15.02;81.97
65374;SHT31;52070;53.760;9.678;2022-10-31T13:42:53;15.00;83.50
65374;SHT31;52070;53.760;9.678;2022-10-31T13:45:23;14.96;83.58
65374;SHT31;52070;53.760;9.678;2022-10-31T13:47:58;15.04;84.32
65374;SHT31;52070;53.760;9.678;2022-10-31T13:50:27;15.20;84.41
65374;SHT31;52070;53.760;9.678;2022-10-31T13:53:11;15.22;83.70
65374;SHT31;52070;53.760;9.678;2022-10-31T13:55:41;15.14;83.41
65374;SHT31;52070;53.760;9.678;2022-10-31T13:58:25;15.07;83.08
65374;SHT31;52070;53.760;9.678;2022-10-31T14:01:06;15.04;83.60
65374;SHT31;52070;53.760;9.678;2022-10-31T14:03:39;15.14;84.31
65374;SHT31;52070;53.760;9.678;2022-10-31T14:06:08;15.11;83.73
65374;SHT31;52070;53.760;9.678;2022-10-31T14:08:39;15.09;83.46
65374;SHT31;52070;53.760;9.678;2022-10-31T14:11:09;15.00;83.54
65374;SHT31;52070;53.760;9.678;2022-10-31T14:13:45;14.88;83.07
65374;SHT31;52070;53.760;9.678;2022-10-31T14:16:18;14.83;83.23
65374;SHT31;52070;53.760;9.678;2022-10-31T14:18:50;14.76;83.52
65374;SHT31;52070;53.760;9.678;2022-10-31T14:21:27;14.71;83.71
65374;SHT31;52070;53.760;9.678;2022-10-31T14:23:56;14.71;84.39
65374;SHT31;52070;53.760;9.678;2022-10-31T14:26:52;14.65;84.33
65374;SHT31;52070;53.760;9.678;2022-10-31T14:29:23;14.62;84.71
65374;SHT31;52070;53.760;9.678;2022-10-31T14:31:56;14.62;84.41
65374;SHT31;52070;53.760;9.678;2022-10-31T14:34:26;14.61;84.54
65374;SHT31;52070;53.760;9.678;2022-10-31T14:37:04;14.65;84.02
65374;SHT31;52070;53.760;9.678;2022-10-31T14:39:37;14.62;84.56
65374;SHT31;52070;53.760;9.678;2022-10-31T14:42:17;14.58;84.54
65374;SHT31;52070;53.760;9.678;2022-10-31T14:45:09;14.48;84.53
65374;SHT31;52070;53.760;9.678;2022-10-31T14:47:45;14.41;85.00
65374;SHT31;52070;53.760;9.678;2022-10-31T14:50:23;14.34;85.29
65374;SHT31;52070;53.760;9.678;2022-10-31T14:52:53;14.26;85.42
65374;SHT31;52070;53.760;9.678;2022-10-31T14:55:21;14.22;85.65
65374;SHT31;52070;53.760;9.678;2022-10-31T14:57:52;14.13;85.66
65374;SHT31;52070;53.760;9.678;2022-10-31T15:00:22;14.10;86.02
65374;SHT31;52070;53.760;9.678;2022-10-31T15:02:58;14.03;86.01
65374;SHT31;52070;53.760;9.678;2022-10-31T15:05:27;13.95;86.22
65374;SHT31;52070;53.760;9.678;2022-10-31T15:07:56;13.91;86.44
65374;SHT31;52070;53.760;9.678;2022-10-31T15:10:25;13.88;86.68
65374;SHT31;52070;53.760;9.678;2022-10-31T15:12:54;13.83;86.94
65374;SHT31;52070;53.760;9.678;2022-10-31T15:15:22;13.75;87.01
65374;SHT31;52070;53.760;9.678;2022-10-31T15:17:52;13.70;87.08
65374;SHT31;52070;53.760;9.678;2022-10-31T15:20:22;13.67;87.23
65374;SHT31;52070;53.760;9.678;2022-10-31T15:22:49;13.62;87.45
65374;SHT31;52070;53.760;9.678;2022-10-31T15:25:18;13.59;87.47
65374;SHT31;52070;53.760;9.678;2022-10-31T15:27:47;13.52;87.57
65374;SHT31;52070;53.760;9.678;2022-10-31T15:30:19;13.46;87.78
65374;SHT31;52070;53.760;9.678;2022-10-31T15:32:50;13.40;87.86
65374;SHT31;52070;53.760;9.678;2022-10-31T15:35:22;13.36;88.08
65374;SHT31;52070;53.760;9.678;2022-10-31T15:37:51;13.38;88.29
65374;SHT31;52070;53.760;9.678;2022-10-31T15:40:21;13.32;88.44
65374;SHT31;52070;53.760;9.678;2022-10-31T15:42:50;13.32;88.48
65374;SHT31;52070;53.760;9.678;2022-10-31T15:45:22;13.30;88.53
65374;SHT31;52070;53.760;9.678;2022-10-31T15:47:55;13.26;88.65
65374;SHT31;52070;53.760;9.678;2022-10-31T15:50:27;13.26;88.81
65374;SHT31;52070;53.760;9.678;2022-10-31T15:52:55;13.24;88.98
65374;SHT31;52070;53.760;9.678;2022-10-31T15:55:24;13.23;88.99